KMMU

Morristown Municipal Airport

Morristown, New Jersey, USA
METAR KMMU 180245Z 03003KT 10SM OVC017 00/M04 A3024
Observed Flight Rules
Dec-18 @ 02:45 UTC (22 minutes ago) Marginal Visual Flight Rules
Wind Visibility Clouds
30° at 3 knots 10 miles
  • Overcast at 1,700' AGL
Temperatures Readings
Current 0°C / 32°F
Dewpoint -4°C / 25°F
Humidity 75%
Altimeter 30.24" Hg
Pressure 1024 hPa
Elevation 57
METAR KMMU 180245Z 03003KT 10SM OVC017 00/M04 A3024
Observed Flight Rules
Dec-18 @ 02:45 UTC
(22 minutes ago)
MVFR
Wind Visibility
30° at 3 knots 10 miles
Clouds
  • Overcast at 1,700' AGL
Temperature Dewpoint
0°C / 32°F -4°C / 25°F
Humidity Altimeter Pressure
75% 30.24" Hg 1024 hPa